Time;durP1;ratioP1;P1;durP2;ratioP2;P2;SDS_P1;SDS_P2;PMS_P1;PMS_P2;Temp;Humidity;BMP_temperature;BMP_pressure;BME280_temperature;BME280_humidity;BME280_pressure;Samples;Min_cycle;Max_cycle;Signal;HPM_P1;HPM_P2
2022/01/19 00:00:57;;;;;;;53.45;17.52;;;;;;;;;;5132387;27;20047;-64
2022/01/19 00:03:23;;;;;;;52.80;18.27;;;;;;;;;;5141247;27;20087;-63
2022/01/19 00:05:50;;;;;;;51.72;17.85;;;;;;;;;;5152841;27;20524;-63
2022/01/19 00:08:19;;;;;;;52.15;17.30;;;;;;;;;;5152716;27;20139;-63
2022/01/19 00:10:47;;;;;;;38.47;14.85;;;;;;;;;;5145821;27;20513;-63
2022/01/19 00:13:13;;;;;;;36.75;14.32;;;;;;;;;;5144753;27;20134;-63
2022/01/19 00:15:41;;;;;;;33.47;13.90;;;;;;;;;;5151165;27;20051;-64
2022/01/19 00:18:12;;;;;;;37.85;14.77;;;;;;;;;;5152327;27;20055;-63
2022/01/19 00:20:38;;;;;;;33.13;13.02;;;;;;;;;;5148465;27;20064;-63
2022/01/19 00:23:05;;;;;;;28.98;11.52;;;;;;;;;;5134950;27;20961;-63
2022/01/19 00:25:32;;;;;;;22.33;11.00;;;;;;;;;;5152342;27;20052;-63
2022/01/19 00:27:58;;;;;;;22.30;10.52;;;;;;;;;;5152825;27;20058;-63
2022/01/19 00:30:26;;;;;;;23.13;10.50;;;;;;;;;;5150862;27;20059;-63
2022/01/19 00:32:53;;;;;;;21.08;9.57;;;;;;;;;;5146802;27;20100;-63
2022/01/19 00:35:19;;;;;;;20.30;9.77;;;;;;;;;;5150643;27;20521;-64
2022/01/19 00:37:46;;;;;;;20.50;10.57;;;;;;;;;;5131125;27;20143;-63
2022/01/19 00:40:14;;;;;;;20.63;10.07;;;;;;;;;;5147116;27;20051;-63
2022/01/19 00:42:44;;;;;;;24.23;10.25;;;;;;;;;;5152129;27;20054;-63
2022/01/19 00:45:11;;;;;;;22.60;10.45;;;;;;;;;;5152164;27;20059;-63
2022/01/19 00:47:38;;;;;;;21.90;10.35;;;;;;;;;;5150335;27;20043;-63
2022/01/19 00:50:05;;;;;;;22.02;10.48;;;;;;;;;;5146681;27;20131;-63
2022/01/19 00:52:31;;;;;;;25.55;10.40;;;;;;;;;;5131391;27;20052;-63
2022/01/19 00:54:58;;;;;;;29.67;11.77;;;;;;;;;;5130877;27;20048;-63
2022/01/19 00:57:24;;;;;;;28.92;10.75;;;;;;;;;;5147616;27;20059;-63
2022/01/19 00:59:52;;;;;;;24.45;11.63;;;;;;;;;;5151409;27;20052;-63
2022/01/19 01:02:18;;;;;;;25.10;10.95;;;;;;;;;;5151145;27;20051;-63
2022/01/19 01:04:45;;;;;;;32.08;12.25;;;;;;;;;;5143459;27;20099;-63
2022/01/19 01:07:11;;;;;;;25.13;11.57;;;;;;;;;;5131473;27;20153;-63
2022/01/19 01:09:37;;;;;;;27.88;11.50;;;;;;;;;;5130366;27;20070;-63
2022/01/19 01:12:12;;;;;;;37.38;14.77;;;;;;;;;;5130370;27;20058;-63
2022/01/19 01:20:13;;;;;;;45.28;14.38;;;;;;;;;;5140739;27;20061;-63
2022/01/19 01:22:39;;;;;;;;;;;;;;;;;;5151870;27;20483;-63
2022/01/19 01:25:06;;;;;;;39.85;13.65;;;;;;;;;;5150689;27;44793;-63
2022/01/19 01:27:34;;;;;;;43.78;14.07;;;;;;;;;;5151075;27;20057;-63
2022/01/19 01:30:01;;;;;;;44.78;15.05;;;;;;;;;;5151877;27;20141;-63
2022/01/19 01:32:27;;;;;;;41.30;13.45;;;;;;;;;;5137348;27;20050;-63
2022/01/19 01:34:53;;;;;;;45.38;15.10;;;;;;;;;;5130641;27;20051;-63
2022/01/19 01:37:20;;;;;;;47.92;15.82;;;;;;;;;;5143134;27;20061;-63
2022/01/19 01:39:47;;;;;;;47.80;15.60;;;;;;;;;;5150992;27;20076;-63
2022/01/19 01:42:14;;;;;;;42.42;14.27;;;;;;;;;;5151221;27;20059;-63
2022/01/19 01:44:44;;;;;;;46.23;15.50;;;;;;;;;;5149155;27;20051;-63
2022/01/19 01:47:12;;;;;;;45.28;16.88;;;;;;;;;;5139655;27;20056;-63
2022/01/19 01:55:12;;;;;;;42.67;14.32;;;;;;;;;;5129846;27;20048;-63
2022/01/19 01:57:39;;;;;;;42.67;13.77;;;;;;;;;;5130148;27;20934;-63
2022/01/19 02:00:07;;;;;;;37.15;13.35;;;;;;;;;;5146098;27;20051;-63
2022/01/19 02:02:34;;;;;;;33.50;13.75;;;;;;;;;;5135549;27;20131;-63
2022/01/19 02:05:00;;;;;;;43.33;13.88;;;;;;;;;;5129105;27;20059;-64
2022/01/19 02:10:02;;;;;;;31.00;11.25;;;;;;;;;;5139166;27;20055;-63
2022/01/19 02:23:39;;;;;;;31.77;13.02;;;;;;;;;;5129347;27;20063;-63
2022/01/19 02:26:12;;;;;;;33.83;13.07;;;;;;;;;;5145575;27;20061;-63
2022/01/19 02:31:54;;;;;;;34.58;14.23;;;;;;;;;;5142712;27;20047;-63
2022/01/19 02:42:51;;;;;;;42.92;14.43;;;;;;;;;;5129428;27;20052;-63
2022/01/19 02:50:30;;;;;;;41.45;15.88;;;;;;;;;;5150133;27;20505;-63
2022/01/19 02:52:57;;;;;;;39.95;15.50;;;;;;;;;;5149227;27;20513;-63
2022/01/19 02:55:23;;;;;;;42.90;15.48;;;;;;;;;;5149872;27;20484;-63
2022/01/19 02:57:50;;;;;;;40.78;15.63;;;;;;;;;;5150102;27;20146;-63
2022/01/19 03:08:47;;;;;;;47.40;17.25;;;;;;;;;;5129542;27;20062;-63
2022/01/19 03:11:15;;;;;;;47.20;17.02;;;;;;;;;;5130363;27;20057;-64
2022/01/19 03:13:42;;;;;;;52.08;16.58;;;;;;;;;;5149216;27;20513;-63
2022/01/19 03:16:09;;;;;;;46.75;17.60;;;;;;;;;;5128140;27;20150;-63
2022/01/19 03:18:35;;;;;;;40.33;15.35;;;;;;;;;;5128987;27;20047;-63
2022/01/19 03:21:02;;;;;;;40.75;15.15;;;;;;;;;;5128853;27;20052;-63
2022/01/19 03:23:29;;;;;;;44.38;16.65;;;;;;;;;;5129268;27;20046;-63
2022/01/19 03:25:57;;;;;;;50.08;16.45;;;;;;;;;;5130229;27;20062;-63
2022/01/19 03:28:23;;;;;;;45.85;15.70;;;;;;;;;;5150805;27;20055;-63
2022/01/19 03:30:50;;;;;;;48.92;17.02;;;;;;;;;;5156288;27;20058;-63
2022/01/19 03:33:16;;;;;;;42.60;15.90;;;;;;;;;;5156878;27;20061;-63
2022/01/19 03:35:43;;;;;;;46.22;15.73;;;;;;;;;;5147858;27;20061;-63
2022/01/19 03:38:10;;;;;;;43.00;15.65;;;;;;;;;;5135105;27;20052;-63
2022/01/19 03:40:36;;;;;;;36.67;15.40;;;;;;;;;;5135875;27;20489;-63
2022/01/19 03:43:05;;;;;;;41.85;14.45;;;;;;;;;;5135173;27;20059;-63
2022/01/19 03:45:33;;;;;;;41.63;15.75;;;;;;;;;;5145988;27;20051;-63
2022/01/19 03:50:45;;;;;;;33.05;11.90;;;;;;;;;;5135253;27;20058;-63
2022/01/19 03:53:11;;;;;;;31.38;12.25;;;;;;;;;;5135632;27;20077;-63
2022/01/19 03:55:37;;;;;;;36.47;11.60;;;;;;;;;;5136049;27;20056;-63
2022/01/19 03:58:04;;;;;;;32.53;11.68;;;;;;;;;;5134455;27;20052;-63
2022/01/19 04:00:34;;;;;;;31.25;12.43;;;;;;;;;;5134851;27;20051;-63
2022/01/19 04:03:04;;;;;;;29.75;13.18;;;;;;;;;;5135075;27;20520;-63
2022/01/19 04:05:55;;;;;;;35.47;13.23;;;;;;;;;;5135975;27;20047;-63
2022/01/19 04:08:21;;;;;;;32.63;13.38;;;;;;;;;;5135682;27;20058;-63
2022/01/19 04:10:48;;;;;;;40.33;14.23;;;;;;;;;;5136186;27;20179;-63
2022/01/19 04:13:33;;;;;;;37.00;15.25;;;;;;;;;;5134831;27;20138;-63
2022/01/19 04:15:59;;;;;;;43.28;16.45;;;;;;;;;;5135788;27;20059;-63
2022/01/19 04:18:26;;;;;;;55.40;20.33;;;;;;;;;;5135643;27;20501;-63
2022/01/19 04:20:53;;;;;;;64.05;21.15;;;;;;;;;;5135179;27;20056;-63
2022/01/19 04:23:21;;;;;;;59.58;18.65;;;;;;;;;;5143814;27;20149;-63
2022/01/19 04:25:47;;;;;;;46.78;18.48;;;;;;;;;;5155086;27;20493;-63
2022/01/19 04:28:14;;;;;;;49.38;15.93;;;;;;;;;;5155971;27;20061;-63
2022/01/19 04:30:41;;;;;;;52.58;17.27;;;;;;;;;;5154601;27;20427;-63
2022/01/19 04:33:15;;;;;;;45.65;16.73;;;;;;;;;;5154973;27;20107;-63
2022/01/19 04:35:46;;;;;;;52.88;16.13;;;;;;;;;;5139037;27;20068;-63
2022/01/19 04:54:06;;;;;;;56.60;18.58;;;;;;;;;;5130724;27;20063;-63
2022/01/19 05:03:05;;;;;;;59.83;20.33;;;;;;;;;;5141081;27;20044;-63
2022/01/19 05:05:39;;;;;;;77.40;22.98;;;;;;;;;;5130854;27;20051;-63
2022/01/19 05:08:32;;;;;;;64.82;20.33;;;;;;;;;;5130914;27;20135;-63
2022/01/19 05:13:51;;;;;;;54.95;20.00;;;;;;;;;;5151384;27;20583;-63
2022/01/19 05:16:19;;;;;;;57.85;19.98;;;;;;;;;;5151592;27;20053;-63
2022/01/19 05:18:46;;;;;;;53.25;18.95;;;;;;;;;;5149295;27;20078;-63
2022/01/19 05:21:12;;;;;;;71.85;21.52;;;;;;;;;;5151009;27;20051;-63
2022/01/19 05:23:39;;;;;;;70.45;21.45;;;;;;;;;;5133068;27;20052;-63
2022/01/19 05:26:05;;;;;;;71.07;22.58;;;;;;;;;;5130071;27;20563;-63
2022/01/19 05:28:31;;;;;;;70.60;21.83;;;;;;;;;;5131180;27;20062;-63
2022/01/19 05:30:58;;;;;;;76.68;23.63;;;;;;;;;;5141172;27;20105;-63
2022/01/19 05:33:24;;;;;;;71.90;22.80;;;;;;;;;;5135761;27;20052;-63
2022/01/19 05:35:50;;;;;;;74.90;23.85;;;;;;;;;;5130605;27;20087;-63
2022/01/19 05:38:17;;;;;;;75.65;24.10;;;;;;;;;;5130970;27;20052;-63
2022/01/19 05:40:43;;;;;;;68.72;23.02;;;;;;;;;;5149009;27;20051;-63
2022/01/19 05:43:10;;;;;;;69.05;22.52;;;;;;;;;;5136152;27;20510;-63
2022/01/19 05:45:36;;;;;;;65.05;22.85;;;;;;;;;;5131095;27;20065;-63
2022/01/19 05:48:03;;;;;;;62.08;21.27;;;;;;;;;;5131008;27;20699;-63
2022/01/19 05:50:29;;;;;;;63.42;21.73;;;;;;;;;;5130869;27;20051;-63
2022/01/19 05:52:55;;;;;;;68.05;23.50;;;;;;;;;;5129546;27;20085;-63
2022/01/19 05:55:22;;;;;;;70.00;21.85;;;;;;;;;;5130642;27;20090;-63
2022/01/19 05:57:48;;;;;;;75.18;23.45;;;;;;;;;;5130571;27;20108;-63
2022/01/19 06:00:15;;;;;;;70.05;23.42;;;;;;;;;;5130912;27;20555;-63
2022/01/19 06:02:41;;;;;;;72.60;24.15;;;;;;;;;;5130883;27;20150;-63
2022/01/19 06:05:08;;;;;;;64.40;23.30;;;;;;;;;;5129736;27;20063;-63
2022/01/19 06:07:42;;;;;;;64.40;23.25;;;;;;;;;;5111201;27;20130;-63
2022/01/19 06:10:11;;;;;;;81.07;23.30;;;;;;;;;;5129678;27;20077;-63
2022/01/19 06:12:38;;;;;;;67.55;24.40;;;;;;;;;;5129937;27;20058;-63
2022/01/19 06:15:05;;;;;;;61.00;23.17;;;;;;;;;;5130004;27;20987;-63
2022/01/19 06:17:31;;;;;;;64.25;23.50;;;;;;;;;;5143043;27;20047;-63
2022/01/19 06:19:58;;;;;;;60.42;22.08;;;;;;;;;;5148122;27;20527;-62
2022/01/19 06:22:24;;;;;;;67.63;21.60;;;;;;;;;;5150708;27;20047;-62
2022/01/19 06:24:50;;;;;;;67.63;22.95;;;;;;;;;;5150410;27;20140;-63
2022/01/19 06:27:17;;;;;;;59.60;22.58;;;;;;;;;;5150509;27;20043;-64
2022/01/19 06:29:43;;;;;;;65.65;23.45;;;;;;;;;;5131685;27;20050;-62
2022/01/19 06:32:10;;;;;;;65.93;23.35;;;;;;;;;;5131734;27;21777;-64
2022/01/19 06:34:37;;;;;;;62.30;23.15;;;;;;;;;;5150154;27;20066;-62
2022/01/19 06:37:04;;;;;;;63.13;24.45;;;;;;;;;;5149775;27;20533;-65
2022/01/19 06:39:30;;;;;;;60.00;22.88;;;;;;;;;;5130065;27;21050;-64
2022/01/19 06:41:56;;;;;;;61.75;22.67;;;;;;;;;;5129790;27;20052;-62
2022/01/19 06:44:22;;;;;;;57.88;24.35;;;;;;;;;;5137088;27;20051;-62
2022/01/19 06:46:49;;;;;;;63.53;22.65;;;;;;;;;;5150033;27;20527;-62
2022/01/19 06:49:15;;;;;;;60.80;22.55;;;;;;;;;;5148838;27;20047;-62
2022/01/19 06:51:42;;;;;;;53.50;22.08;;;;;;;;;;5150266;27;20509;-63
2022/01/19 06:54:08;;;;;;;58.85;21.58;;;;;;;;;;5150052;27;20055;-62
2022/01/19 06:56:37;;;;;;;55.45;21.92;;;;;;;;;;5143885;27;20052;-62
2022/01/19 06:59:04;;;;;;;51.97;21.02;;;;;;;;;;5149554;27;20063;-62
2022/01/19 07:01:32;;;;;;;54.25;21.52;;;;;;;;;;5149627;27;20085;-64
2022/01/19 07:04:00;;;;;;;68.97;21.75;;;;;;;;;;5145670;27;20524;-62
2022/01/19 07:06:26;;;;;;;62.38;22.13;;;;;;;;;;5150535;27;20047;-63
2022/01/19 07:08:52;;;;;;;52.10;22.33;;;;;;;;;;5133929;27;20054;-65
2022/01/19 07:11:19;;;;;;;52.60;21.70;;;;;;;;;;5129496;27;20062;-63
2022/01/19 07:13:45;;;;;;;64.38;23.02;;;;;;;;;;5127914;27;20048;-65
2022/01/19 07:16:11;;;;;;;69.10;24.27;;;;;;;;;;5128372;27;20827;-63
2022/01/19 07:18:38;;;;;;;59.40;23.58;;;;;;;;;;5129580;27;20475;-65
2022/01/19 07:21:05;;;;;;;63.38;22.45;;;;;;;;;;5134745;27;20509;-64
2022/01/19 07:23:31;;;;;;;62.65;22.83;;;;;;;;;;5146621;27;20051;-63
2022/01/19 07:25:57;;;;;;;69.53;25.40;;;;;;;;;;5135110;27;20055;-63
2022/01/19 07:28:24;;;;;;;67.28;23.10;;;;;;;;;;5134787;27;20576;-62
2022/01/19 07:30:50;;;;;;;70.85;25.23;;;;;;;;;;5129614;27;20062;-62
2022/01/19 07:33:16;;;;;;;63.15;24.33;;;;;;;;;;5127863;27;20051;-63
2022/01/19 07:35:43;;;;;;;68.40;24.05;;;;;;;;;;5127929;27;20052;-63
2022/01/19 07:38:09;;;;;;;67.78;25.85;;;;;;;;;;5140984;27;20566;-63
2022/01/19 07:40:35;;;;;;;69.53;24.13;;;;;;;;;;5130628;27;20055;-63
2022/01/19 07:43:02;;;;;;;58.72;23.35;;;;;;;;;;5129560;27;20056;-63
2022/01/19 07:45:28;;;;;;;63.92;23.90;;;;;;;;;;5135056;27;20060;-63
2022/01/19 07:47:55;;;;;;;67.10;25.48;;;;;;;;;;5140379;27;20138;-63
2022/01/19 07:50:21;;;;;;;74.43;26.00;;;;;;;;;;5128867;27;20138;-64
2022/01/19 07:52:47;;;;;;;72.53;25.38;;;;;;;;;;5124181;27;20527;-63
2022/01/19 07:55:14;;;;;;;68.28;25.83;;;;;;;;;;5124845;27;20058;-63
2022/01/19 07:57:45;;;;;;;68.93;24.60;;;;;;;;;;5127839;27;20086;-63
2022/01/19 08:00:12;;;;;;;70.30;26.33;;;;;;;;;;5127233;27;20489;-63
2022/01/19 08:02:40;;;;;;;71.22;26.23;;;;;;;;;;5131618;27;20138;-63
2022/01/19 08:05:07;;;;;;;65.05;26.08;;;;;;;;;;5138621;27;20059;-64
2022/01/19 08:07:34;;;;;;;73.20;26.27;;;;;;;;;;5126624;27;20051;-63
2022/01/19 08:10:05;;;;;;;60.67;25.02;;;;;;;;;;5129371;27;20055;-64
2022/01/19 08:12:32;;;;;;;63.85;24.13;;;;;;;;;;5148796;27;20050;-64
2022/01/19 08:14:58;;;;;;;61.53;25.20;;;;;;;;;;5137760;27;20058;-64
2022/01/19 08:17:28;;;;;;;75.72;27.05;;;;;;;;;;5137176;27;20055;-64
2022/01/19 08:19:55;;;;;;;70.30;27.83;;;;;;;;;;5134149;27;20085;-64
2022/01/19 08:22:22;;;;;;;71.05;26.50;;;;;;;;;;5146278;27;20047;-65
2022/01/19 08:24:49;;;;;;;74.32;25.80;;;;;;;;;;5152073;27;20061;-64
2022/01/19 08:27:15;;;;;;;79.00;27.10;;;;;;;;;;5140179;27;20051;-64
2022/01/19 08:29:42;;;;;;;68.50;25.70;;;;;;;;;;5139637;27;20105;-64
2022/01/19 08:32:08;;;;;;;66.32;28.13;;;;;;;;;;5134955;27;20055;-63
2022/01/19 08:34:55;;;;;;;68.80;25.75;;;;;;;;;;5136687;27;20437;-63
2022/01/19 08:37:21;;;;;;;72.15;27.20;;;;;;;;;;5146390;27;20514;-63
2022/01/19 08:39:48;;;;;;;69.88;26.17;;;;;;;;;;5136650;27;20531;-62
2022/01/19 08:42:14;;;;;;;77.47;27.73;;;;;;;;;;5145520;27;20047;-63
2022/01/19 08:44:40;;;;;;;74.03;27.00;;;;;;;;;;5146150;27;20050;-62
2022/01/19 08:47:07;;;;;;;76.35;28.30;;;;;;;;;;5145211;27;20506;-64
2022/01/19 08:49:49;;;;;;;78.70;29.98;;;;;;;;;;5134853;27;20055;-63
2022/01/19 08:52:16;;;;;;;76.28;29.05;;;;;;;;;;5145046;27;20055;-64
2022/01/19 08:54:44;;;;;;;86.00;28.65;;;;;;;;;;5150285;27;20145;-65
2022/01/19 08:57:12;;;;;;;72.88;29.33;;;;;;;;;;5132056;27;20056;-65
2022/01/19 08:59:38;;;;;;;77.15;29.95;;;;;;;;;;5130920;27;20054;-64
2022/01/19 09:02:06;;;;;;;77.28;29.73;;;;;;;;;;5129747;27;20121;-64
2022/01/19 09:04:32;;;;;;;80.22;29.95;;;;;;;;;;5136032;27;20206;-63
2022/01/19 09:06:59;;;;;;;77.60;29.27;;;;;;;;;;5148360;27;20142;-63
2022/01/19 09:09:26;;;;;;;78.20;30.70;;;;;;;;;;5131176;27;20051;-63
2022/01/19 09:11:52;;;;;;;78.88;29.08;;;;;;;;;;5130644;27;20493;-63
2022/01/19 09:14:18;;;;;;;83.93;29.67;;;;;;;;;;5130459;27;20066;-64
2022/01/19 09:16:49;;;;;;;82.63;30.42;;;;;;;;;;5131192;27;20959;-63
2022/01/19 09:19:16;;;;;;;80.40;29.60;;;;;;;;;;5130244;27;20059;-63
2022/01/19 09:21:43;;;;;;;90.40;30.77;;;;;;;;;;5131448;27;20536;-63
2022/01/19 09:24:10;;;;;;;80.25;30.98;;;;;;;;;;5129764;27;20066;-64
2022/01/19 09:26:37;;;;;;;83.68;31.35;;;;;;;;;;5130110;27;20044;-64
2022/01/19 09:29:04;;;;;;;83.90;30.15;;;;;;;;;;5131415;27;20576;-62
2022/01/19 09:31:33;;;;;;;78.35;28.92;;;;;;;;;;5144411;27;20068;-63
2022/01/19 09:34:10;;;;;;;78.63;30.30;;;;;;;;;;5133105;27;20501;-63
2022/01/19 09:36:44;;;;;;;90.43;32.78;;;;;;;;;;5147652;27;20051;-64
2022/01/19 09:39:12;;;;;;;74.95;30.90;;;;;;;;;;5139993;27;20062;-64
2022/01/19 09:41:38;;;;;;;88.47;31.90;;;;;;;;;;5151197;27;20047;-64
2022/01/19 09:44:05;;;;;;;80.00;31.20;;;;;;;;;;5134690;27;20142;-64
2022/01/19 09:46:31;;;;;;;81.63;31.55;;;;;;;;;;5131194;27;20058;-64
2022/01/19 09:49:00;;;;;;;74.90;31.30;;;;;;;;;;5129333;27;20051;-63
2022/01/19 09:51:27;;;;;;;79.07;30.52;;;;;;;;;;5130935;27;20043;-63
2022/01/19 09:53:54;;;;;;;79.32;29.13;;;;;;;;;;5130565;27;20043;-66
2022/01/19 09:56:20;;;;;;;75.57;30.27;;;;;;;;;;5130122;27;20525;-64
2022/01/19 09:58:47;;;;;;;74.65;29.42;;;;;;;;;;5134714;27;20087;-64
2022/01/19 10:01:19;;;;;;;80.25;29.90;;;;;;;;;;5151142;27;20211;-64
2022/01/19 10:03:46;;;;;;;71.57;28.35;;;;;;;;;;5131593;27;20112;-63
2022/01/19 10:06:17;;;;;;;80.93;29.52;;;;;;;;;;5140942;27;20146;-64
2022/01/19 10:08:47;;;;;;;72.70;30.85;;;;;;;;;;5147758;27;20049;-63
2022/01/19 10:11:19;;;;;;;73.85;27.88;;;;;;;;;;5151023;27;20531;-64
2022/01/19 10:19:19;;;;;;;73.93;29.90;;;;;;;;;;5137731;27;20056;-63
2022/01/19 10:21:55;;;;;;;77.50;30.70;;;;;;;;;;5132684;27;20052;-63
2022/01/19 10:24:38;;;;;;;68.97;28.83;;;;;;;;;;5136744;27;20059;-63
2022/01/19 10:27:23;;;;;;;73.63;28.05;;;;;;;;;;5139088;27;20054;-63
2022/01/19 10:29:51;;;;;;;72.40;28.95;;;;;;;;;;5134995;27;20047;-63
2022/01/19 10:32:22;;;;;;;62.47;27.20;;;;;;;;;;5139603;27;20524;-63
2022/01/19 10:34:49;;;;;;;71.18;29.80;;;;;;;;;;5136786;27;20293;-63
2022/01/19 10:37:21;;;;;;;74.38;29.15;;;;;;;;;;5135467;27;20048;-63
2022/01/19 10:39:51;;;;;;;80.75;28.98;;;;;;;;;;5137031;27;20475;-62
2022/01/19 10:42:19;;;;;;;73.88;29.77;;;;;;;;;;5134394;27;20544;-63
2022/01/19 10:44:47;;;;;;;72.57;27.98;;;;;;;;;;5134163;27;20146;-63
2022/01/19 10:47:40;;;;;;;74.10;29.80;;;;;;;;;;5132764;27;20052;-63
2022/01/19 10:50:08;;;;;;;68.15;27.27;;;;;;;;;;5132151;27;20755;-63
2022/01/19 10:52:40;;;;;;;68.43;29.20;;;;;;;;;;5137799;27;20067;-63
2022/01/19 10:55:07;;;;;;;69.53;27.75;;;;;;;;;;5142501;27;20075;-63
2022/01/19 10:57:35;;;;;;;65.45;27.33;;;;;;;;;;5142005;27;20126;-63
2022/01/19 11:00:12;;;;;;;638.53;68.90;;;;;;;;;;5129669;27;20178;-62
2022/01/19 11:02:38;;;;;;;74.45;30.38;;;;;;;;;;5136609;27;20143;-63
2022/01/19 11:05:05;;;;;;;71.13;27.98;;;;;;;;;;5131264;27;20527;-62
2022/01/19 11:07:32;;;;;;;73.68;29.42;;;;;;;;;;5132179;27;20561;-64
2022/01/19 11:10:21;;;;;;;64.50;27.70;;;;;;;;;;5136906;27;20054;-66
2022/01/19 11:12:47;;;;;;;66.43;26.70;;;;;;;;;;5134136;27;20054;-63
2022/01/19 11:15:13;;;;;;;;;;;;;;;;;;5130093;27;20051;-63
2022/01/19 11:17:40;;;;;;;61.58;28.45;;;;;;;;;;5142873;27;44265;-63
2022/01/19 11:20:09;;;;;;;64.90;27.15;;;;;;;;;;5146309;27;20516;-63
2022/01/19 11:22:35;;;;;;;65.82;27.73;;;;;;;;;;5131329;27;20043;-63
2022/01/19 11:25:19;;;;;;;61.05;26.77;;;;;;;;;;5136860;27;20052;-63
2022/01/19 11:28:06;;;;;;;60.25;27.85;;;;;;;;;;5128995;27;20063;-62
2022/01/19 11:30:34;;;;;;;66.45;29.17;;;;;;;;;;5137316;27;20150;-62
2022/01/19 11:33:06;;;;;;;63.05;28.05;;;;;;;;;;5142463;27;20059;-62
2022/01/19 11:35:33;;;;;;;63.97;28.15;;;;;;;;;;5132132;27;20058;-62
2022/01/19 11:38:00;;;;;;;62.78;28.20;;;;;;;;;;5129228;27;20052;-65
2022/01/19 11:40:34;;;;;;;60.33;28.63;;;;;;;;;;5137274;27;20047;-62
2022/01/19 11:43:21;;;;;;;65.43;28.23;;;;;;;;;;5144820;27;20051;-62
2022/01/19 11:45:47;;;;;;;58.60;27.85;;;;;;;;;;5128962;27;20105;-63
2022/01/19 11:48:22;;;;;;;60.13;28.33;;;;;;;;;;5131678;27;20054;-65
2022/01/19 11:50:50;;;;;;;65.85;30.02;;;;;;;;;;5138238;27;20086;-63
2022/01/19 11:53:16;;;;;;;68.10;30.48;;;;;;;;;;5136225;27;20052;-62
2022/01/19 11:56:09;;;;;;;59.58;28.42;;;;;;;;;;5134374;27;20052;-62
2022/01/19 11:58:36;;;;;;;64.63;28.85;;;;;;;;;;5135652;27;20062;-62
2022/01/19 12:01:18;;;;;;;65.95;28.70;;;;;;;;;;5138407;27;20051;-63
2022/01/19 12:03:45;;;;;;;67.00;28.80;;;;;;;;;;5152933;27;20104;-63
2022/01/19 12:06:34;;;;;;;65.53;30.30;;;;;;;;;;5137162;27;20056;-63
2022/01/19 12:09:03;;;;;;;64.53;30.80;;;;;;;;;;5133928;27;20063;-62
2022/01/19 12:11:32;;;;;;;61.42;26.67;;;;;;;;;;5131882;27;20059;-62
2022/01/19 12:14:10;;;;;;;63.25;29.25;;;;;;;;;;5133870;27;20060;-62
2022/01/19 12:19:07;;;;;;;64.30;27.92;;;;;;;;;;5137579;27;20047;-63
2022/01/19 12:21:33;;;;;;;64.97;29.00;;;;;;;;;;5141118;27;20513;-64
2022/01/19 12:24:29;;;;;;;62.40;29.10;;;;;;;;;;5139557;27;20059;-64
2022/01/19 12:27:03;;;;;;;59.75;27.27;;;;;;;;;;5134715;27;20892;-64
2022/01/19 12:29:32;;;;;;;66.32;27.90;;;;;;;;;;5135276;27;20150;-65
2022/01/19 12:32:17;;;;;;;63.65;27.75;;;;;;;;;;5133037;27;20047;-64
2022/01/19 12:34:54;;;;;;;60.95;28.05;;;;;;;;;;5131653;27;20058;-64
2022/01/19 12:37:26;;;;;;;59.22;27.65;;;;;;;;;;5147503;27;20039;-63
2022/01/19 12:39:53;;;;;;;59.33;27.75;;;;;;;;;;5131402;27;20051;-64
2022/01/19 12:42:25;;;;;;;56.35;27.20;;;;;;;;;;5142121;27;20059;-64
2022/01/19 12:44:54;;;;;;;56.90;27.05;;;;;;;;;;5151818;27;20039;-64
2022/01/19 12:47:23;;;;;;;61.40;28.23;;;;;;;;;;5148206;27;20057;-64
2022/01/19 12:49:50;;;;;;;53.03;27.13;;;;;;;;;;5132191;27;20062;-64
2022/01/19 12:52:17;;;;;;;55.30;27.00;;;;;;;;;;5131447;27;20501;-64
2022/01/19 12:54:44;;;;;;;58.08;26.85;;;;;;;;;;5143072;27;20051;-62
2022/01/19 12:57:15;;;;;;;55.25;25.92;;;;;;;;;;5153930;27;20055;-62
2022/01/19 12:59:43;;;;;;;52.72;24.30;;;;;;;;;;5131932;27;20050;-62
2022/01/19 13:02:11;;;;;;;50.75;26.20;;;;;;;;;;5131368;27;20060;-64
2022/01/19 13:04:38;;;;;;;48.30;23.70;;;;;;;;;;5131726;27;20051;-62
2022/01/19 13:07:19;;;;;;;55.53;26.83;;;;;;;;;;5131152;27;20517;-62
2022/01/19 13:10:08;;;;;;;55.45;26.88;;;;;;;;;;5131336;27;20055;-63
2022/01/19 13:12:38;;;;;;;58.58;26.92;;;;;;;;;;5145527;27;20065;-64
2022/01/19 13:15:04;;;;;;;51.75;24.58;;;;;;;;;;5130943;27;20066;-62
2022/01/19 13:17:41;;;;;;;54.08;25.65;;;;;;;;;;5130878;27;20186;-62
2022/01/19 13:20:11;;;;;;;58.70;25.55;;;;;;;;;;5147982;27;20051;-63
2022/01/19 13:22:45;;;;;;;55.25;26.83;;;;;;;;;;5131628;27;20052;-63
2022/01/19 13:25:19;;;;;;;54.33;26.15;;;;;;;;;;5148632;27;20058;-63
2022/01/19 13:27:46;;;;;;;49.53;24.80;;;;;;;;;;5151869;27;20104;-62
2022/01/19 13:30:16;;;;;;;50.47;24.75;;;;;;;;;;5147116;27;20527;-62
2022/01/19 13:32:43;;;;;;;54.90;26.10;;;;;;;;;;5130552;27;20057;-62
2022/01/19 13:35:10;;;;;;;58.85;26.80;;;;;;;;;;5130119;27;20051;-62
2022/01/19 13:37:38;;;;;;;56.40;24.75;;;;;;;;;;5142775;27;20090;-64
2022/01/19 13:40:06;;;;;;;54.67;25.10;;;;;;;;;;5136878;27;20061;-63
2022/01/19 13:42:34;;;;;;;47.05;23.20;;;;;;;;;;5141993;27;20047;-62
2022/01/19 13:45:08;;;;;;;46.83;24.02;;;;;;;;;;5135464;27;20493;-62
2022/01/19 13:47:52;;;;;;;55.95;25.10;;;;;;;;;;5151639;27;20059;-62
2022/01/19 13:50:19;;;;;;;53.30;23.77;;;;;;;;;;5140598;27;20524;-63
2022/01/19 13:52:45;;;;;;;51.90;23.42;;;;;;;;;;5139510;27;20134;-64
2022/01/19 13:55:19;;;;;;;48.53;21.88;;;;;;;;;;5130169;27;20043;-62
2022/01/19 13:57:46;;;;;;;51.22;24.27;;;;;;;;;;5130484;27;20512;-62
2022/01/19 14:00:15;;;;;;;46.47;23.73;;;;;;;;;;5149809;27;20493;-62
2022/01/19 14:02:57;;;;;;;51.17;23.30;;;;;;;;;;5138278;27;20055;-63
2022/01/19 14:08:37;;;;;;;50.22;23.98;;;;;;;;;;5130679;27;20051;-63
2022/01/19 14:11:03;;;;;;;48.85;24.08;;;;;;;;;;5130163;27;20056;-62
2022/01/19 14:13:31;;;;;;;54.88;23.98;;;;;;;;;;5130890;27;20048;-63
2022/01/19 14:16:19;;;;;;;50.53;22.88;;;;;;;;;;5152747;27;20572;-62
2022/01/19 14:19:04;;;;;;;55.38;23.48;;;;;;;;;;5142541;27;20048;-62
2022/01/19 14:21:31;;;;;;;47.53;23.67;;;;;;;;;;5132497;27;20055;-63
2022/01/19 14:24:01;;;;;;;61.92;26.90;;;;;;;;;;5134768;27;20048;-62
2022/01/19 14:26:27;;;;;;;48.65;23.13;;;;;;;;;;5129766;27;20059;-62
2022/01/19 14:29:09;;;;;;;49.95;24.58;;;;;;;;;;5130400;27;20505;-62
2022/01/19 14:31:46;;;;;;;55.80;24.20;;;;;;;;;;5130050;27;20051;-62
2022/01/19 14:34:32;;;;;;;53.85;24.33;;;;;;;;;;5130279;27;20047;-62
2022/01/19 14:37:14;;;;;;;54.42;24.90;;;;;;;;;;5134961;27;20051;-62
2022/01/19 14:39:55;;;;;;;53.13;25.27;;;;;;;;;;5135987;27;20062;-61
2022/01/19 14:42:24;;;;;;;56.85;25.23;;;;;;;;;;5139060;27;20051;-62
2022/01/19 14:44:59;;;;;;;63.55;25.55;;;;;;;;;;5132788;27;20058;-62
2022/01/19 14:47:37;;;;;;;60.38;25.15;;;;;;;;;;5145038;27;20509;-62
2022/01/19 14:50:16;;;;;;;58.55;24.70;;;;;;;;;;5149871;27;20053;-62
2022/01/19 14:52:42;;;;;;;55.72;25.95;;;;;;;;;;5146118;27;20062;-62
2022/01/19 14:55:09;;;;;;;56.45;25.10;;;;;;;;;;5141571;27;20047;-62
2022/01/19 14:57:35;;;;;;;58.45;25.38;;;;;;;;;;5133749;27;20505;-62
2022/01/19 15:00:05;;;;;;;54.85;26.13;;;;;;;;;;5137241;27;20174;-62
2022/01/19 15:02:31;;;;;;;57.33;23.98;;;;;;;;;;5131214;27;20047;-62
2022/01/19 15:04:58;;;;;;;56.42;24.85;;;;;;;;;;5132874;27;20097;-61
2022/01/19 15:07:24;;;;;;;53.42;24.02;;;;;;;;;;5131407;27;20087;-62
2022/01/19 15:09:50;;;;;;;62.53;24.40;;;;;;;;;;5149183;27;20494;-61
2022/01/19 15:12:16;;;;;;;58.78;23.98;;;;;;;;;;5144040;27;20047;-62
2022/01/19 15:14:48;;;;;;;50.58;23.75;;;;;;;;;;5138623;27;20059;-62
2022/01/19 15:17:15;;;;;;;50.15;24.45;;;;;;;;;;5134261;27;20047;-61
2022/01/19 15:19:41;;;;;;;57.10;24.77;;;;;;;;;;5130047;27;20130;-62
2022/01/19 15:22:08;;;;;;;54.53;25.13;;;;;;;;;;5128660;27;20124;-65
2022/01/19 15:24:34;;;;;;;61.83;25.17;;;;;;;;;;5129398;27;20109;-63
2022/01/19 15:27:01;;;;;;;58.35;25.67;;;;;;;;;;5131957;27;20058;-63
2022/01/19 15:29:27;;;;;;;56.65;24.17;;;;;;;;;;5134125;27;20081;-63
2022/01/19 15:31:54;;;;;;;52.90;23.20;;;;;;;;;;5136910;27;20504;-62
2022/01/19 15:34:20;;;;;;;57.55;25.27;;;;;;;;;;5133858;27;20055;-62
2022/01/19 15:36:48;;;;;;;63.30;25.48;;;;;;;;;;5148350;27;20578;-62
2022/01/19 15:39:14;;;;;;;64.75;25.23;;;;;;;;;;5149668;27;20055;-62
2022/01/19 15:41:40;;;;;;;67.57;23.25;;;;;;;;;;5148798;27;20636;-62
2022/01/19 15:44:07;;;;;;;60.60;24.02;;;;;;;;;;5148826;27;20055;-62
2022/01/19 15:46:34;;;;;;;54.30;22.85;;;;;;;;;;5147859;27;20653;-62
2022/01/19 15:49:02;;;;;;;;;;;;;;;;;;5149704;27;20051;-63
2022/01/19 15:51:31;;;;;;;52.13;20.23;;;;;;;;;;5141545;27;43027;-65
2022/01/19 15:53:57;;;;;;;51.65;21.05;;;;;;;;;;5137109;27;20054;-62
2022/01/19 15:56:24;;;;;;;45.28;19.42;;;;;;;;;;5140296;27;20047;-62
2022/01/19 15:58:50;;;;;;;50.15;20.70;;;;;;;;;;5131636;27;20058;-62